sensor_id;sensor_type;location;lat;lon;timestamp;P1;durP1;ratioP1;P2;durP2;ratioP2
14187;SDS011;7175;51.978;5.330;2023-05-16T00:01:44;25.97;;;24.17;;
14187;SDS011;7175;51.978;5.330;2023-05-16T00:04:14;27.07;;;25.17;;
14187;SDS011;7175;51.978;5.330;2023-05-16T00:06:43;27.50;;;25.60;;
14187;SDS011;7175;51.978;5.330;2023-05-16T00:09:11;27.03;;;25.13;;
14187;SDS011;7175;51.978;5.330;2023-05-16T00:11:39;25.53;;;23.73;;
14187;SDS011;7175;51.978;5.330;2023-05-16T00:14:07;25.80;;;24.00;;
14187;SDS011;7175;51.978;5.330;2023-05-16T00:16:35;26.40;;;24.60;;
14187;SDS011;7175;51.978;5.330;2023-05-16T00:19:04;26.03;;;24.23;;
14187;SDS011;7175;51.978;5.330;2023-05-16T00:21:34;26.47;;;24.67;;
14187;SDS011;7175;51.978;5.330;2023-05-16T00:24:02;26.73;;;24.93;;
14187;SDS011;7175;51.978;5.330;2023-05-16T00:26:31;26.17;;;24.37;;
14187;SDS011;7175;51.978;5.330;2023-05-16T00:28:59;29.20;;;27.10;;
14187;SDS011;7175;51.978;5.330;2023-05-16T00:31:27;26.53;;;24.73;;
14187;SDS011;7175;51.978;5.330;2023-05-16T00:33:55;26.77;;;24.97;;
14187;SDS011;7175;51.978;5.330;2023-05-16T00:36:25;26.63;;;24.73;;
14187;SDS011;7175;51.978;5.330;2023-05-16T00:38:55;27.27;;;25.37;;
14187;SDS011;7175;51.978;5.330;2023-05-16T00:41:23;26.87;;;24.97;;
14187;SDS011;7175;51.978;5.330;2023-05-16T00:43:52;30.20;;;28.00;;
14187;SDS011;7175;51.978;5.330;2023-05-16T00:46:20;27.73;;;25.83;;
14187;SDS011;7175;51.978;5.330;2023-05-16T00:48:48;27.53;;;25.63;;
14187;SDS011;7175;51.978;5.330;2023-05-16T00:51:16;28.00;;;26.10;;
14187;SDS011;7175;51.978;5.330;2023-05-16T00:53:45;28.17;;;26.27;;
14187;SDS011;7175;51.978;5.330;2023-05-16T00:56:14;28.50;;;26.60;;
14187;SDS011;7175;51.978;5.330;2023-05-16T00:58:44;28.23;;;26.23;;
14187;SDS011;7175;51.978;5.330;2023-05-16T01:01:12;28.60;;;26.60;;
14187;SDS011;7175;51.978;5.330;2023-05-16T01:03:40;28.27;;;26.27;;
14187;SDS011;7175;51.978;5.330;2023-05-16T01:06:11;30.37;;;28.17;;
14187;SDS011;7175;51.978;5.330;2023-05-16T01:08:39;29.33;;;27.33;;
14187;SDS011;7175;51.978;5.330;2023-05-16T01:11:10;28.93;;;26.93;;
14187;SDS011;7175;51.978;5.330;2023-05-16T01:13:47;29.70;;;27.57;;
14187;SDS011;7175;51.978;5.330;2023-05-16T01:16:25;30.57;;;28.47;;
14187;SDS011;7175;51.978;5.330;2023-05-16T01:18:59;31.43;;;29.33;;
14187;SDS011;7175;51.978;5.330;2023-05-16T01:21:41;32.30;;;30.20;;
14187;SDS011;7175;51.978;5.330;2023-05-16T01:24:20;31.17;;;29.07;;
14187;SDS011;7175;51.978;5.330;2023-05-16T01:26:54;32.53;;;30.43;;
14187;SDS011;7175;51.978;5.330;2023-05-16T01:29:25;32.73;;;30.63;;
14187;SDS011;7175;51.978;5.330;2023-05-16T01:31:53;32.53;;;30.43;;
14187;SDS011;7175;51.978;5.330;2023-05-16T01:34:24;31.60;;;29.50;;
14187;SDS011;7175;51.978;5.330;2023-05-16T01:36:54;32.73;;;30.53;;
14187;SDS011;7175;51.978;5.330;2023-05-16T01:39:35;31.70;;;29.60;;
14187;SDS011;7175;51.978;5.330;2023-05-16T01:42:13;32.40;;;30.27;;
14187;SDS011;7175;51.978;5.330;2023-05-16T01:44:43;33.47;;;31.27;;
14187;SDS011;7175;51.978;5.330;2023-05-16T01:47:16;33.70;;;31.50;;
14187;SDS011;7175;51.978;5.330;2023-05-16T01:49:48;34.20;;;32.00;;
14187;SDS011;7175;51.978;5.330;2023-05-16T01:52:24;34.17;;;31.97;;
14187;SDS011;7175;51.978;5.330;2023-05-16T01:54:58;35.03;;;32.80;;
14187;SDS011;7175;51.978;5.330;2023-05-16T01:57:28;35.03;;;32.57;;
14187;SDS011;7175;51.978;5.330;2023-05-16T01:59:57;37.27;;;34.30;;
14187;SDS011;7175;51.978;5.330;2023-05-16T02:02:25;38.03;;;35.40;;
14187;SDS011;7175;51.978;5.330;2023-05-16T02:04:53;35.60;;;33.30;;
14187;SDS011;7175;51.978;5.330;2023-05-16T02:07:21;36.37;;;34.07;;
14187;SDS011;7175;51.978;5.330;2023-05-16T02:09:50;36.90;;;34.50;;
14187;SDS011;7175;51.978;5.330;2023-05-16T02:12:18;37.50;;;35.10;;
14187;SDS011;7175;51.978;5.330;2023-05-16T02:14:48;39.03;;;36.57;;
14187;SDS011;7175;51.978;5.330;2023-05-16T02:17:16;38.97;;;36.47;;
14187;SDS011;7175;51.978;5.330;2023-05-16T02:19:44;38.77;;;36.33;;
14187;SDS011;7175;51.978;5.330;2023-05-16T02:22:12;40.10;;;37.60;;
14187;SDS011;7175;51.978;5.330;2023-05-16T02:24:40;41.83;;;39.23;;
14187;SDS011;7175;51.978;5.330;2023-05-16T02:27:09;41.70;;;39.10;;
14187;SDS011;7175;51.978;5.330;2023-05-16T02:29:37;41.63;;;39.03;;
14187;SDS011;7175;51.978;5.330;2023-05-16T02:32:06;42.43;;;39.73;;
14187;SDS011;7175;51.978;5.330;2023-05-16T02:34:34;42.60;;;39.90;;
14187;SDS011;7175;51.978;5.330;2023-05-16T02:37:03;42.87;;;40.17;;
14187;SDS011;7175;51.978;5.330;2023-05-16T02:39:31;43.97;;;41.17;;
14187;SDS011;7175;51.978;5.330;2023-05-16T02:41:59;43.77;;;40.97;;
14187;SDS011;7175;51.978;5.330;2023-05-16T02:44:27;45.53;;;42.73;;
14187;SDS011;7175;51.978;5.330;2023-05-16T02:46:56;47.50;;;44.60;;
14187;SDS011;7175;51.978;5.330;2023-05-16T02:49:25;45.90;;;43.10;;
14187;SDS011;7175;51.978;5.330;2023-05-16T02:51:53;48.03;;;45.13;;
14187;SDS011;7175;51.978;5.330;2023-05-16T02:54:22;48.30;;;45.40;;
14187;SDS011;7175;51.978;5.330;2023-05-16T02:56:50;47.93;;;45.03;;
14187;SDS011;7175;51.978;5.330;2023-05-16T02:59:18;49.43;;;46.47;;
14187;SDS011;7175;51.978;5.330;2023-05-16T03:01:46;49.37;;;46.37;;
14187;SDS011;7175;51.978;5.330;2023-05-16T03:04:14;50.87;;;47.87;;
14187;SDS011;7175;51.978;5.330;2023-05-16T03:06:44;50.67;;;47.67;;
14187;SDS011;7175;51.978;5.330;2023-05-16T03:09:12;57.37;;;51.00;;
14187;SDS011;7175;51.978;5.330;2023-05-16T03:11:40;52.27;;;49.17;;
14187;SDS011;7175;51.978;5.330;2023-05-16T03:14:08;52.47;;;49.33;;
14187;SDS011;7175;51.978;5.330;2023-05-16T03:16:37;54.13;;;50.87;;
14187;SDS011;7175;51.978;5.330;2023-05-16T03:19:07;55.00;;;51.70;;
14187;SDS011;7175;51.978;5.330;2023-05-16T03:21:35;53.67;;;50.47;;
14187;SDS011;7175;51.978;5.330;2023-05-16T03:24:05;54.60;;;51.40;;
14187;SDS011;7175;51.978;5.330;2023-05-16T03:26:33;55.67;;;52.37;;
14187;SDS011;7175;51.978;5.330;2023-05-16T03:29:01;57.60;;;54.20;;
14187;SDS011;7175;51.978;5.330;2023-05-16T03:31:30;58.90;;;55.50;;
14187;SDS011;7175;51.978;5.330;2023-05-16T03:33:59;62.40;;;58.13;;
14187;SDS011;7175;51.978;5.330;2023-05-16T03:36:27;58.57;;;55.10;;
14187;SDS011;7175;51.978;5.330;2023-05-16T03:38:55;59.10;;;55.60;;
14187;SDS011;7175;51.978;5.330;2023-05-16T03:41:25;58.77;;;55.27;;
14187;SDS011;7175;51.978;5.330;2023-05-16T03:43:53;59.47;;;55.97;;
14187;SDS011;7175;51.978;5.330;2023-05-16T03:46:21;59.70;;;56.20;;
14187;SDS011;7175;51.978;5.330;2023-05-16T03:48:49;60.13;;;56.53;;
14187;SDS011;7175;51.978;5.330;2023-05-16T03:51:17;60.27;;;56.67;;
14187;SDS011;7175;51.978;5.330;2023-05-16T03:53:45;60.93;;;57.33;;
14187;SDS011;7175;51.978;5.330;2023-05-16T03:56:14;63.47;;;59.67;;
14187;SDS011;7175;51.978;5.330;2023-05-16T03:58:43;63.33;;;59.43;;
14187;SDS011;7175;51.978;5.330;2023-05-16T04:01:11;67.60;;;63.10;;
14187;SDS011;7175;51.978;5.330;2023-05-16T04:03:39;67.17;;;63.13;;
14187;SDS011;7175;51.978;5.330;2023-05-16T04:06:08;68.10;;;64.07;;
14187;SDS011;7175;51.978;5.330;2023-05-16T04:08:36;67.03;;;63.03;;
14187;SDS011;7175;51.978;5.330;2023-05-16T04:11:06;67.50;;;63.40;;
14187;SDS011;7175;51.978;5.330;2023-05-16T04:13:34;66.70;;;62.70;;
14187;SDS011;7175;51.978;5.330;2023-05-16T04:16:04;72.87;;;68.57;;
14187;SDS011;7175;51.978;5.330;2023-05-16T04:18:32;75.47;;;70.97;;
14187;SDS011;7175;51.978;5.330;2023-05-16T04:21:01;78.50;;;74.00;;
14187;SDS011;7175;51.978;5.330;2023-05-16T04:23:29;82.00;;;77.17;;
14187;SDS011;7175;51.978;5.330;2023-05-16T04:25:57;77.10;;;72.70;;
14187;SDS011;7175;51.978;5.330;2023-05-16T04:28:27;79.80;;;75.30;;
14187;SDS011;7175;51.978;5.330;2023-05-16T04:30:55;84.07;;;79.17;;
14187;SDS011;7175;51.978;5.330;2023-05-16T04:33:25;79.80;;;75.20;;
14187;SDS011;7175;51.978;5.330;2023-05-16T04:35:53;82.13;;;77.50;;
14187;SDS011;7175;51.978;5.330;2023-05-16T04:38:24;86.97;;;82.07;;
14187;SDS011;7175;51.978;5.330;2023-05-16T04:40:52;87.30;;;82.40;;
14187;SDS011;7175;51.978;5.330;2023-05-16T04:43:20;89.17;;;84.17;;
14187;SDS011;7175;51.978;5.330;2023-05-16T04:45:48;91.60;;;86.50;;
14187;SDS011;7175;51.978;5.330;2023-05-16T04:48:19;93.13;;;87.93;;
14187;SDS011;7175;51.978;5.330;2023-05-16T04:50:49;96.47;;;91.07;;
14187;SDS011;7175;51.978;5.330;2023-05-16T04:53:17;97.57;;;92.10;;
14187;SDS011;7175;51.978;5.330;2023-05-16T04:55:46;98.17;;;92.67;;
14187;SDS011;7175;51.978;5.330;2023-05-16T04:58:14;99.33;;;93.73;;
14187;SDS011;7175;51.978;5.330;2023-05-16T05:00:42;102.67;;;96.87;;
14187;SDS011;7175;51.978;5.330;2023-05-16T05:03:10;102.57;;;96.67;;
14187;SDS011;7175;51.978;5.330;2023-05-16T05:05:38;106.27;;;100.17;;
14187;SDS011;7175;51.978;5.330;2023-05-16T05:08:08;107.40;;;101.20;;
14187;SDS011;7175;51.978;5.330;2023-05-16T05:10:36;110.97;;;104.57;;
14187;SDS011;7175;51.978;5.330;2023-05-16T05:13:04;112.27;;;105.87;;
14187;SDS011;7175;51.978;5.330;2023-05-16T05:15:32;110.20;;;103.90;;
14187;SDS011;7175;51.978;5.330;2023-05-16T05:18:00;110.57;;;104.27;;
14187;SDS011;7175;51.978;5.330;2023-05-16T05:20:29;107.70;;;101.50;;
14187;SDS011;7175;51.978;5.330;2023-05-16T05:22:57;106.30;;;100.20;;
14187;SDS011;7175;51.978;5.330;2023-05-16T05:25:26;104.57;;;98.57;;
14187;SDS011;7175;51.978;5.330;2023-05-16T05:27:55;105.27;;;99.17;;
14187;SDS011;7175;51.978;5.330;2023-05-16T05:30:23;97.80;;;92.10;;
14187;SDS011;7175;51.978;5.330;2023-05-16T05:32:51;96.07;;;90.47;;
14187;SDS011;7175;51.978;5.330;2023-05-16T05:35:20;94.03;;;88.53;;
14187;SDS011;7175;51.978;5.330;2023-05-16T05:37:48;92.40;;;86.90;;
14187;SDS011;7175;51.978;5.330;2023-05-16T05:40:17;91.00;;;85.60;;
14187;SDS011;7175;51.978;5.330;2023-05-16T05:42:46;92.20;;;86.70;;
14187;SDS011;7175;51.978;5.330;2023-05-16T05:45:14;88.37;;;83.07;;
14187;SDS011;7175;51.978;5.330;2023-05-16T05:47:43;87.77;;;82.50;;
14187;SDS011;7175;51.978;5.330;2023-05-16T05:50:11;84.00;;;78.90;;
14187;SDS011;7175;51.978;5.330;2023-05-16T05:52:40;83.50;;;78.50;;
14187;SDS011;7175;51.978;5.330;2023-05-16T05:55:08;75.47;;;70.87;;
14187;SDS011;7175;51.978;5.330;2023-05-16T05:57:36;66.63;;;62.50;;
14187;SDS011;7175;51.978;5.330;2023-05-16T06:00:07;65.17;;;61.07;;
14187;SDS011;7175;51.978;5.330;2023-05-16T06:02:37;58.57;;;54.87;;
14187;SDS011;7175;51.978;5.330;2023-05-16T06:05:06;45.47;;;42.37;;
14187;SDS011;7175;51.978;5.330;2023-05-16T06:07:35;40.50;;;37.60;;
14187;SDS011;7175;51.978;5.330;2023-05-16T06:10:03;34.27;;;31.67;;
14187;SDS011;7175;51.978;5.330;2023-05-16T06:12:34;29.93;;;27.57;;
14187;SDS011;7175;51.978;5.330;2023-05-16T06:15:02;26.63;;;24.43;;
14187;SDS011;7175;51.978;5.330;2023-05-16T06:17:32;23.77;;;21.77;;
14187;SDS011;7175;51.978;5.330;2023-05-16T06:20:01;23.27;;;21.37;;
14187;SDS011;7175;51.978;5.330;2023-05-16T06:22:29;22.57;;;20.70;;
14187;SDS011;7175;51.978;5.330;2023-05-16T06:25:01;20.97;;;19.27;;
14187;SDS011;7175;51.978;5.330;2023-05-16T06:27:29;21.10;;;19.40;;
14187;SDS011;7175;51.978;5.330;2023-05-16T06:29:58;21.10;;;19.40;;
14187;SDS011;7175;51.978;5.330;2023-05-16T06:32:26;20.80;;;19.10;;
14187;SDS011;7175;51.978;5.330;2023-05-16T06:34:56;20.43;;;18.80;;
14187;SDS011;7175;51.978;5.330;2023-05-16T06:37:24;20.50;;;18.90;;
14187;SDS011;7175;51.978;5.330;2023-05-16T06:39:52;20.37;;;18.67;;
14187;SDS011;7175;51.978;5.330;2023-05-16T06:42:20;20.03;;;18.43;;
14187;SDS011;7175;51.978;5.330;2023-05-16T06:44:48;19.57;;;17.97;;
14187;SDS011;7175;51.978;5.330;2023-05-16T06:47:16;20.47;;;18.87;;
14187;SDS011;7175;51.978;5.330;2023-05-16T06:49:45;19.07;;;17.57;;
14187;SDS011;7175;51.978;5.330;2023-05-16T06:52:14;19.80;;;18.20;;
14187;SDS011;7175;51.978;5.330;2023-05-16T06:54:42;19.80;;;18.20;;
14187;SDS011;7175;51.978;5.330;2023-05-16T06:57:11;20.27;;;18.67;;
14187;SDS011;7175;51.978;5.330;2023-05-16T06:59:39;20.00;;;18.40;;
14187;SDS011;7175;51.978;5.330;2023-05-16T07:02:08;19.33;;;17.80;;
14187;SDS011;7175;51.978;5.330;2023-05-16T07:04:36;19.70;;;18.13;;
14187;SDS011;7175;51.978;5.330;2023-05-16T07:07:04;19.30;;;17.80;;
14187;SDS011;7175;51.978;5.330;2023-05-16T07:09:34;19.77;;;18.17;;
14187;SDS011;7175;51.978;5.330;2023-05-16T07:12:04;19.93;;;18.43;;
14187;SDS011;7175;51.978;5.330;2023-05-16T07:14:33;19.33;;;17.73;;
14187;SDS011;7175;51.978;5.330;2023-05-16T07:17:01;19.60;;;18.00;;
14187;SDS011;7175;51.978;5.330;2023-05-16T07:19:29;20.10;;;18.50;;
14187;SDS011;7175;51.978;5.330;2023-05-16T07:21:57;19.80;;;18.20;;
14187;SDS011;7175;51.978;5.330;2023-05-16T07:24:26;19.90;;;18.30;;
14187;SDS011;7175;51.978;5.330;2023-05-16T07:26:55;20.20;;;18.60;;
14187;SDS011;7175;51.978;5.330;2023-05-16T07:29:25;20.33;;;18.73;;
14187;SDS011;7175;51.978;5.330;2023-05-16T07:31:53;20.50;;;18.90;;
14187;SDS011;7175;51.978;5.330;2023-05-16T07:34:21;20.40;;;18.80;;
14187;SDS011;7175;51.978;5.330;2023-05-16T07:36:49;20.07;;;18.47;;
14187;SDS011;7175;51.978;5.330;2023-05-16T07:39:18;20.20;;;18.60;;
14187;SDS011;7175;51.978;5.330;2023-05-16T07:41:46;20.23;;;18.63;;
14187;SDS011;7175;51.978;5.330;2023-05-16T07:44:15;19.90;;;18.40;;
14187;SDS011;7175;51.978;5.330;2023-05-16T07:46:43;20.33;;;18.73;;
14187;SDS011;7175;51.978;5.330;2023-05-16T07:49:12;19.50;;;17.90;;
14187;SDS011;7175;51.978;5.330;2023-05-16T07:51:40;19.37;;;17.77;;
14187;SDS011;7175;51.978;5.330;2023-05-16T07:54:08;19.33;;;17.73;;
14187;SDS011;7175;51.978;5.330;2023-05-16T07:56:36;19.20;;;17.70;;
14187;SDS011;7175;51.978;5.330;2023-05-16T07:59:04;19.13;;;17.53;;
14187;SDS011;7175;51.978;5.330;2023-05-16T08:01:34;19.47;;;17.97;;
14187;SDS011;7175;51.978;5.330;2023-05-16T08:04:03;19.27;;;17.77;;
14187;SDS011;7175;51.978;5.330;2023-05-16T08:06:31;19.20;;;17.70;;
14187;SDS011;7175;51.978;5.330;2023-05-16T08:08:59;20.83;;;19.23;;
14187;SDS011;7175;51.978;5.330;2023-05-16T08:11:28;19.40;;;17.90;;
14187;SDS011;7175;51.978;5.330;2023-05-16T08:13:56;19.77;;;18.27;;
14187;SDS011;7175;51.978;5.330;2023-05-16T08:16:24;19.87;;;18.37;;
14187;SDS011;7175;51.978;5.330;2023-05-16T08:18:53;20.43;;;18.83;;
14187;SDS011;7175;51.978;5.330;2023-05-16T08:21:21;20.60;;;19.00;;
14187;SDS011;7175;51.978;5.330;2023-05-16T08:23:50;20.40;;;18.80;;
14187;SDS011;7175;51.978;5.330;2023-05-16T08:26:18;21.03;;;19.43;;
14187;SDS011;7175;51.978;5.330;2023-05-16T08:28:47;20.27;;;18.67;;
14187;SDS011;7175;51.978;5.330;2023-05-16T08:31:15;20.30;;;18.70;;
14187;SDS011;7175;51.978;5.330;2023-05-16T08:33:43;20.43;;;18.83;;
14187;SDS011;7175;51.978;5.330;2023-05-16T08:36:13;20.40;;;18.80;;
14187;SDS011;7175;51.978;5.330;2023-05-16T08:38:41;20.17;;;18.57;;
14187;SDS011;7175;51.978;5.330;2023-05-16T08:41:09;20.07;;;18.47;;
14187;SDS011;7175;51.978;5.330;2023-05-16T08:43:37;20.50;;;18.90;;
14187;SDS011;7175;51.978;5.330;2023-05-16T08:46:06;21.97;;;20.17;;
14187;SDS011;7175;51.978;5.330;2023-05-16T08:48:35;20.40;;;18.70;;
14187;SDS011;7175;51.978;5.330;2023-05-16T08:51:05;20.97;;;19.27;;
14187;SDS011;7175;51.978;5.330;2023-05-16T08:53:37;21.10;;;19.40;;
14187;SDS011;7175;51.978;5.330;2023-05-16T08:56:11;21.10;;;19.40;;
14187;SDS011;7175;51.978;5.330;2023-05-16T08:58:41;20.37;;;18.67;;
14187;SDS011;7175;51.978;5.330;2023-05-16T09:01:09;20.43;;;18.83;;
14187;SDS011;7175;51.978;5.330;2023-05-16T09:03:38;21.07;;;19.47;;
14187;SDS011;7175;51.978;5.330;2023-05-16T09:06:07;20.63;;;18.93;;
14187;SDS011;7175;51.978;5.330;2023-05-16T09:08:35;20.80;;;19.10;;
14187;SDS011;7175;51.978;5.330;2023-05-16T09:11:04;20.97;;;19.27;;
14187;SDS011;7175;51.978;5.330;2023-05-16T09:13:33;19.87;;;18.27;;
14187;SDS011;7175;51.978;5.330;2023-05-16T09:16:08;19.20;;;17.70;;
14187;SDS011;7175;51.978;5.330;2023-05-16T09:18:38;18.90;;;17.40;;
14187;SDS011;7175;51.978;5.330;2023-05-16T09:21:07;18.57;;;17.17;;
14187;SDS011;7175;51.978;5.330;2023-05-16T09:23:38;19.70;;;18.10;;
14187;SDS011;7175;51.978;5.330;2023-05-16T09:26:09;19.20;;;17.70;;
14187;SDS011;7175;51.978;5.330;2023-05-16T09:28:38;19.60;;;18.00;;
14187;SDS011;7175;51.978;5.330;2023-05-16T09:31:18;19.30;;;17.77;;
14187;SDS011;7175;51.978;5.330;2023-05-16T09:33:48;18.60;;;17.20;;
14187;SDS011;7175;51.978;5.330;2023-05-16T09:36:16;19.23;;;17.73;;
14187;SDS011;7175;51.978;5.330;2023-05-16T09:38:46;19.60;;;18.10;;
14187;SDS011;7175;51.978;5.330;2023-05-16T09:41:14;19.57;;;18.07;;
14187;SDS011;7175;51.978;5.330;2023-05-16T09:43:43;19.70;;;18.10;;
14187;SDS011;7175;51.978;5.330;2023-05-16T09:46:12;19.90;;;18.30;;
14187;SDS011;7175;51.978;5.330;2023-05-16T09:48:43;20.00;;;18.40;;
14187;SDS011;7175;51.978;5.330;2023-05-16T09:51:12;20.00;;;18.40;;
14187;SDS011;7175;51.978;5.330;2023-05-16T09:53:41;18.70;;;17.20;;
14187;SDS011;7175;51.978;5.330;2023-05-16T09:56:12;18.57;;;17.07;;
14187;SDS011;7175;51.978;5.330;2023-05-16T09:58:41;18.30;;;16.90;;
14187;SDS011;7175;51.978;5.330;2023-05-16T10:01:11;19.50;;;18.00;;
14187;SDS011;7175;51.978;5.330;2023-05-16T10:03:40;19.70;;;18.20;;
14187;SDS011;7175;51.978;5.330;2023-05-16T10:06:09;19.63;;;18.13;;
14187;SDS011;7175;51.978;5.330;2023-05-16T10:08:40;21.47;;;19.77;;
14187;SDS011;7175;51.978;5.330;2023-05-16T10:11:10;19.37;;;17.87;;
14187;SDS011;7175;51.978;5.330;2023-05-16T10:13:40;18.87;;;17.37;;
14187;SDS011;7175;51.978;5.330;2023-05-16T10:16:10;19.33;;;17.73;;
14187;SDS011;7175;51.978;5.330;2023-05-16T10:18:40;18.87;;;17.37;;
14187;SDS011;7175;51.978;5.330;2023-05-16T10:21:12;19.00;;;17.50;;
14187;SDS011;7175;51.978;5.330;2023-05-16T10:23:42;19.20;;;17.70;;
14187;SDS011;7175;51.978;5.330;2023-05-16T10:26:16;19.30;;;17.80;;
14187;SDS011;7175;51.978;5.330;2023-05-16T10:28:44;20.10;;;18.50;;
14187;SDS011;7175;51.978;5.330;2023-05-16T10:31:12;19.97;;;18.27;;
14187;SDS011;7175;51.978;5.330;2023-05-16T10:33:41;19.40;;;17.80;;
14187;SDS011;7175;51.978;5.330;2023-05-16T10:36:10;20.80;;;19.00;;
14187;SDS011;7175;51.978;5.330;2023-05-16T10:38:39;19.70;;;18.00;;
14187;SDS011;7175;51.978;5.330;2023-05-16T10:41:09;20.57;;;18.87;;
14187;SDS011;7175;51.978;5.330;2023-05-16T10:43:43;20.10;;;18.50;;
14187;SDS011;7175;51.978;5.330;2023-05-16T10:46:11;20.07;;;18.47;;
14187;SDS011;7175;51.978;5.330;2023-05-16T10:48:41;19.93;;;18.33;;
14187;SDS011;7175;51.978;5.330;2023-05-16T10:54:03;19.63;;;18.03;;
14187;SDS011;7175;51.978;5.330;2023-05-16T10:56:32;20.13;;;18.43;;
14187;SDS011;7175;51.978;5.330;2023-05-16T10:59:03;20.13;;;18.47;;
14187;SDS011;7175;51.978;5.330;2023-05-16T11:01:31;19.30;;;17.70;;
14187;SDS011;7175;51.978;5.330;2023-05-16T11:04:07;18.67;;;17.17;;
14187;SDS011;7175;51.978;5.330;2023-05-16T11:06:49;18.63;;;17.13;;
14187;SDS011;7175;51.978;5.330;2023-05-16T11:09:23;18.83;;;17.33;;
14187;SDS011;7175;51.978;5.330;2023-05-16T11:12:00;19.80;;;18.30;;
14187;SDS011;7175;51.978;5.330;2023-05-16T11:14:35;19.50;;;18.00;;
14187;SDS011;7175;51.978;5.330;2023-05-16T11:17:09;19.40;;;17.87;;
14187;SDS011;7175;51.978;5.330;2023-05-16T11:19:39;20.57;;;18.10;;
14187;SDS011;7175;51.978;5.330;2023-05-16T11:22:10;19.47;;;17.87;;
14187;SDS011;7175;51.978;5.330;2023-05-16T11:24:50;18.47;;;16.97;;
14187;SDS011;7175;51.978;5.330;2023-05-16T11:27:25;19.13;;;17.53;;
14187;SDS011;7175;51.978;5.330;2023-05-16T11:29:57;19.07;;;17.57;;
14187;SDS011;7175;51.978;5.330;2023-05-16T11:32:29;19.10;;;17.60;;
14187;SDS011;7175;51.978;5.330;2023-05-16T11:35:00;18.73;;;17.23;;
14187;SDS011;7175;51.978;5.330;2023-05-16T11:37:29;20.00;;;18.10;;
14187;SDS011;7175;51.978;5.330;2023-05-16T11:39:57;18.60;;;17.10;;
14187;SDS011;7175;51.978;5.330;2023-05-16T11:42:28;18.80;;;17.20;;
14187;SDS011;7175;51.978;5.330;2023-05-16T11:45:04;18.70;;;17.20;;
14187;SDS011;7175;51.978;5.330;2023-05-16T11:47:33;18.40;;;16.90;;
14187;SDS011;7175;51.978;5.330;2023-05-16T11:50:04;18.60;;;17.10;;
14187;SDS011;7175;51.978;5.330;2023-05-16T11:52:35;18.67;;;17.17;;
14187;SDS011;7175;51.978;5.330;2023-05-16T11:55:05;18.50;;;17.00;;
14187;SDS011;7175;51.978;5.330;2023-05-16T11:57:36;18.60;;;17.10;;
14187;SDS011;7175;51.978;5.330;2023-05-16T12:00:09;19.00;;;17.40;;
14187;SDS011;7175;51.978;5.330;2023-05-16T12:02:43;18.97;;;17.37;;
14187;SDS011;7175;51.978;5.330;2023-05-16T12:05:13;19.40;;;17.70;;
14187;SDS011;7175;51.978;5.330;2023-05-16T12:07:42;19.70;;;18.00;;
14187;SDS011;7175;51.978;5.330;2023-05-16T12:10:12;19.73;;;18.03;;
14187;SDS011;7175;51.978;5.330;2023-05-16T12:12:41;19.13;;;17.53;;
14187;SDS011;7175;51.978;5.330;2023-05-16T12:15:12;19.57;;;17.97;;
14187;SDS011;7175;51.978;5.330;2023-05-16T12:17:41;19.00;;;17.50;;
14187;SDS011;7175;51.978;5.330;2023-05-16T12:20:10;19.13;;;17.60;;
14187;SDS011;7175;51.978;5.330;2023-05-16T12:22:42;19.37;;;17.87;;
14187;SDS011;7175;51.978;5.330;2023-05-16T12:25:22;19.10;;;17.60;;
14187;SDS011;7175;51.978;5.330;2023-05-16T12:27:52;19.10;;;17.60;;
14187;SDS011;7175;51.978;5.330;2023-05-16T12:30:23;18.63;;;17.13;;
14187;SDS011;7175;51.978;5.330;2023-05-16T12:32:56;18.90;;;17.40;;
14187;SDS011;7175;51.978;5.330;2023-05-16T12:35:25;19.80;;;18.20;;
14187;SDS011;7175;51.978;5.330;2023-05-16T12:37:56;18.87;;;17.37;;
14187;SDS011;7175;51.978;5.330;2023-05-16T12:40:26;18.87;;;17.37;;
14187;SDS011;7175;51.978;5.330;2023-05-16T12:42:56;20.20;;;18.43;;
14187;SDS011;7175;51.978;5.330;2023-05-16T12:45:26;18.90;;;17.40;;
14187;SDS011;7175;51.978;5.330;2023-05-16T12:47:54;18.90;;;17.30;;
14187;SDS011;7175;51.978;5.330;2023-05-16T12:50:25;19.10;;;17.50;;
14187;SDS011;7175;51.978;5.330;2023-05-16T12:52:57;20.67;;;18.90;;
14187;SDS011;7175;51.978;5.330;2023-05-16T12:55:28;19.40;;;17.80;;
14187;SDS011;7175;51.978;5.330;2023-05-16T12:57:56;19.20;;;17.60;;
14187;SDS011;7175;51.978;5.330;2023-05-16T13:00:24;18.60;;;17.10;;
14187;SDS011;7175;51.978;5.330;2023-05-16T13:02:54;19.10;;;17.60;;
14187;SDS011;7175;51.978;5.330;2023-05-16T13:05:23;19.30;;;17.80;;
14187;SDS011;7175;51.978;5.330;2023-05-16T13:07:51;19.10;;;17.60;;
14187;SDS011;7175;51.978;5.330;2023-05-16T13:10:20;19.90;;;18.30;;
14187;SDS011;7175;51.978;5.330;2023-05-16T13:12:48;19.90;;;18.30;;
14187;SDS011;7175;51.978;5.330;2023-05-16T13:15:16;19.40;;;17.80;;
14187;SDS011;7175;51.978;5.330;2023-05-16T13:17:46;18.93;;;17.43;;
14187;SDS011;7175;51.978;5.330;2023-05-16T13:20:14;19.33;;;17.73;;
14187;SDS011;7175;51.978;5.330;2023-05-16T13:22:43;19.30;;;17.70;;
14187;SDS011;7175;51.978;5.330;2023-05-16T13:25:12;19.50;;;17.90;;
14187;SDS011;7175;51.978;5.330;2023-05-16T13:27:40;19.97;;;18.20;;
14187;SDS011;7175;51.978;5.330;2023-05-16T13:30:09;20.23;;;18.53;;
14187;SDS011;7175;51.978;5.330;2023-05-16T13:32:38;19.30;;;17.70;;
14187;SDS011;7175;51.978;5.330;2023-05-16T13:35:08;19.20;;;17.60;;
14187;SDS011;7175;51.978;5.330;2023-05-16T13:37:36;19.40;;;17.80;;
14187;SDS011;7175;51.978;5.330;2023-05-16T13:40:05;20.87;;;18.77;;
14187;SDS011;7175;51.978;5.330;2023-05-16T13:42:36;19.27;;;17.67;;
14187;SDS011;7175;51.978;5.330;2023-05-16T13:45:05;19.43;;;17.83;;
14187;SDS011;7175;51.978;5.330;2023-05-16T13:47:34;19.40;;;17.80;;
14187;SDS011;7175;51.978;5.330;2023-05-16T13:50:03;19.50;;;17.90;;
14187;SDS011;7175;51.978;5.330;2023-05-16T13:52:37;19.43;;;17.93;;
14187;SDS011;7175;51.978;5.330;2023-05-16T13:55:06;19.50;;;18.00;;
14187;SDS011;7175;51.978;5.330;2023-05-16T13:57:35;19.30;;;17.80;;
14187;SDS011;7175;51.978;5.330;2023-05-16T14:00:05;19.47;;;17.97;;
14187;SDS011;7175;51.978;5.330;2023-05-16T14:02:57;19.23;;;17.73;;
14187;SDS011;7175;51.978;5.330;2023-05-16T14:05:26;19.10;;;17.60;;
14187;SDS011;7175;51.978;5.330;2023-05-16T14:07:55;19.50;;;17.93;;
14187;SDS011;7175;51.978;5.330;2023-05-16T14:10:23;19.00;;;17.50;;
14187;SDS011;7175;51.978;5.330;2023-05-16T14:12:52;18.47;;;16.97;;
14187;SDS011;7175;51.978;5.330;2023-05-16T14:15:21;18.50;;;17.00;;
14187;SDS011;7175;51.978;5.330;2023-05-16T14:17:49;18.80;;;17.30;;
14187;SDS011;7175;51.978;5.330;2023-05-16T14:20:17;18.60;;;17.13;;
14187;SDS011;7175;51.978;5.330;2023-05-16T14:22:45;18.60;;;17.10;;
14187;SDS011;7175;51.978;5.330;2023-05-16T14:25:15;18.40;;;16.90;;
14187;SDS011;7175;51.978;5.330;2023-05-16T14:27:43;18.73;;;17.13;;
14187;SDS011;7175;51.978;5.330;2023-05-16T14:30:12;19.10;;;17.50;;
14187;SDS011;7175;51.978;5.330;2023-05-16T14:32:40;18.67;;;17.17;;
14187;SDS011;7175;51.978;5.330;2023-05-16T14:35:08;18.80;;;17.30;;
14187;SDS011;7175;51.978;5.330;2023-05-16T14:37:37;18.37;;;16.87;;
14187;SDS011;7175;51.978;5.330;2023-05-16T14:40:05;17.90;;;16.50;;
14187;SDS011;7175;51.978;5.330;2023-05-16T14:42:37;18.40;;;17.00;;
14187;SDS011;7175;51.978;5.330;2023-05-16T14:45:05;19.60;;;18.10;;
14187;SDS011;7175;51.978;5.330;2023-05-16T14:47:34;19.00;;;17.50;;
14187;SDS011;7175;51.978;5.330;2023-05-16T14:50:03;18.53;;;17.13;;